Gillam Airport
CYGX : now visible

Airfield :











YOU CAN JOIN US ON...

 
LOGIN :

Register | Disclaimer

   EN    FR    IT 

 









Legend :    VFR   Marginal VFR   IFR   Intensive IFR   Very Intensive IFR
Visi :
Ceiling :
>= 8 km
>= 3000ft
5 to 8 km
1000 to 3000 ft
1500m to 5 km
500 to 1000 ft
800 to 1500m
200 to 500 ft
< 800m
< 200 ft
Symbols :   Thunderstorms  Fog  Heavy snow  Heavy precipitations  Wind > 20 kt






- Airport Elevation : 476 ft
- IATA code : YGX


CYGX - Gillam

CURRENT METAR :
  • 171700Z 22007KT 10SM -SN OVC019 M09/M12 A2983 RMK SC8 SLP116

EXPIRED METARs :
  • 171600Z 21008KT 8SM -SN OVC021 M10/M12 A2985 RMK SC8 SLP125
  • 171500Z 24005KT 8SM -SN OVC020 M10/M12 A2988 RMK SC8 SLP134

TAF TAF CYGX
Valid from the 17 at 13:00 until the 18 at 01:00 UTC


171238Z 1713/1801 VRB03KT P6SM OVC025
TEMPO 1713/1801 5SM -SN OVC010 RMK NXT FCST BY 171900Z



MET'MAP, your aeronautical weather chart ! - Copyright ORBIFLY December 2007 - Disclaimer

ORBIFLY MET'MAP TEAM :

Programming & Development : Alexandra Zaïnal
Concept & Development : Baudouin d'Aumeries
Co-Development & Prog : Marc-Olivier Méhu
Technical & hardware support : Manuel Goepfert

Contact : metmap@orbifly.com




SOURCES & CREDITS :

   NOAA       Earth
Advisory